createdAt,value
2022-12-14T00:02:37.691Z,27.23
2022-12-14T00:07:39.726Z,24.80
2022-12-14T00:12:41.797Z,24.88
2022-12-14T00:17:43.887Z,19.33
2022-12-14T00:22:45.972Z,23.45
2022-12-14T00:27:48.176Z,21.90
2022-12-14T00:32:50.176Z,23.67
2022-12-14T00:37:52.173Z,21.00
2022-12-14T00:42:54.356Z,22.90
2022-12-14T00:47:56.571Z,25.30
2022-12-14T00:53:01.902Z,20.55
2022-12-14T00:58:04.107Z,23.95
2022-12-14T01:03:07.156Z,24.08
2022-12-14T01:08:09.291Z,23.85
2022-12-14T01:13:11.428Z,21.50
2022-12-14T01:18:13.498Z,25.90
2022-12-14T01:23:15.517Z,22.88
2022-12-14T01:28:17.531Z,23.40
2022-12-14T01:33:19.566Z,19.52
2022-12-14T01:38:21.587Z,20.10
2022-12-14T01:43:23.954Z,19.45
2022-12-14T01:48:26.199Z,22.25
2022-12-14T01:53:28.718Z,21.27
2022-12-14T01:58:31.069Z,23.15
2022-12-14T02:03:43.794Z,21.08
2022-12-14T02:08:49.513Z,23.05
2022-12-14T02:13:51.805Z,20.65
2022-12-14T02:18:53.916Z,20.00
2022-12-14T02:24:20.739Z,22.42
2022-12-14T02:29:43.845Z,19.75
2022-12-14T02:35:00.198Z,20.27
2022-12-14T02:40:29.591Z,17.85
2022-12-14T02:45:54.115Z,20.60
2022-12-14T02:51:18.413Z,19.35
2022-12-14T02:56:26.472Z,21.77
2022-12-14T03:01:29.993Z,18.85
2022-12-14T03:06:32.158Z,19.45
2022-12-14T03:11:48.787Z,15.65
2022-12-14T03:16:52.305Z,18.85
2022-12-14T03:21:58.740Z,19.60
2022-12-14T03:27:16.574Z,22.27
2022-12-14T03:32:23.074Z,19.42
2022-12-14T03:37:40.339Z,24.67
2022-12-14T03:42:53.317Z,20.13
2022-12-14T03:48:33.498Z,22.58
2022-12-14T03:53:45.192Z,20.52
2022-12-14T03:58:59.994Z,17.95
2022-12-14T04:04:12.682Z,18.50
2022-12-14T04:09:30.020Z,18.00
2022-12-14T04:14:55.415Z,23.40
2022-12-14T04:20:18.048Z,21.70
2022-12-14T04:25:44.051Z,20.13
2022-12-14T04:30:46.374Z,20.95
2022-12-14T04:35:49.568Z,24.02
2022-12-14T04:40:54.736Z,23.05
2022-12-14T04:46:09.738Z,22.02
2022-12-14T04:51:17.866Z,22.10
2022-12-14T04:56:29.140Z,19.98
2022-12-14T05:01:49.063Z,19.88
2022-12-14T05:07:24.018Z,22.58
2022-12-14T05:12:49.847Z,19.80
2022-12-14T05:17:52.406Z,19.80
2022-12-14T05:22:54.588Z,22.90
2022-12-14T05:27:56.758Z,20.02
2022-12-14T05:32:58.843Z,20.73
2022-12-14T05:38:01.007Z,19.73
2022-12-14T05:43:05.088Z,21.65
2022-12-14T05:48:07.090Z,19.20
2022-12-14T05:53:09.174Z,22.23
2022-12-14T05:58:11.322Z,19.92
2022-12-14T06:03:13.281Z,21.02
2022-12-14T06:08:15.273Z,21.83
2022-12-14T06:13:17.280Z,23.17
2022-12-14T06:18:19.741Z,23.85
2022-12-14T06:23:21.741Z,22.38
2022-12-14T06:28:24.266Z,22.88
2022-12-14T06:33:27.025Z,25.45
2022-12-14T06:38:29.603Z,25.30
2022-12-14T06:43:31.770Z,23.83
2022-12-14T06:48:33.794Z,22.88
2022-12-14T06:53:36.205Z,20.60
2022-12-14T06:58:38.783Z,28.40
2022-12-14T07:03:42.167Z,27.48
2022-12-14T07:08:44.502Z,23.90
2022-12-14T07:13:48.934Z,20.85
2022-12-14T07:18:51.922Z,26.15
2022-12-14T07:23:53.968Z,24.55
2022-12-14T07:28:58.270Z,23.40
2022-12-14T07:34:00.407Z,23.63
2022-12-14T07:39:02.562Z,23.10
2022-12-14T07:44:05.306Z,26.50
2022-12-14T07:49:07.957Z,20.63
2022-12-14T07:54:11.485Z,23.80
2022-12-14T07:59:16.422Z,25.20
2022-12-14T08:04:19.945Z,21.17
2022-12-14T08:09:22.039Z,23.65
2022-12-14T08:14:24.053Z,27.50
2022-12-14T08:19:26.142Z,19.45
2022-12-14T08:24:28.123Z,24.02
2022-12-14T08:29:30.222Z,25.35
2022-12-14T08:34:32.250Z,26.17
2022-12-14T08:39:34.289Z,24.65
2022-12-14T08:44:36.372Z,23.42
2022-12-14T08:49:38.444Z,26.95
2022-12-14T08:54:40.431Z,27.52
2022-12-14T09:05:05.159Z,26.60
2022-12-14T09:10:11.084Z,28.15
2022-12-14T09:15:14.209Z,29.00
2022-12-14T09:20:17.386Z,31.42
2022-12-14T09:25:19.495Z,27.83
2022-12-14T09:30:26.355Z,22.63
2022-12-14T09:35:28.939Z,22.48
2022-12-14T09:40:32.904Z,20.23
2022-12-14T09:45:48.665Z,21.23
2022-12-14T09:50:52.896Z,25.42
2022-12-14T09:55:57.278Z,21.63
2022-12-14T10:01:22.214Z,25.35
2022-12-14T10:06:51.636Z,22.40
2022-12-14T10:12:21.351Z,22.55
2022-12-14T10:17:51.287Z,24.33
2022-12-14T10:22:54.472Z,26.63
2022-12-14T10:28:15.526Z,23.25
2022-12-14T10:33:27.794Z,20.60
2022-12-14T10:39:03.046Z,19.95
2022-12-14T10:44:26.712Z,23.98
2022-12-14T10:49:50.394Z,21.90
2022-12-14T10:54:55.759Z,21.75
2022-12-14T11:00:08.626Z,20.42
2022-12-14T11:05:17.358Z,21.02
2022-12-14T11:10:32.366Z,22.08
2022-12-14T11:15:43.316Z,23.85
2022-12-14T11:21:00.306Z,17.92
2022-12-14T11:26:05.044Z,18.90
2022-12-14T11:31:11.462Z,24.33
2022-12-14T11:36:24.647Z,23.40
2022-12-14T11:41:34.167Z,23.52
2022-12-14T11:47:03.097Z,20.10
2022-12-14T11:52:05.260Z,21.85
2022-12-14T11:57:13.235Z,16.58
2022-12-14T12:02:18.465Z,25.40
2022-12-14T12:07:37.018Z,19.23
2022-12-14T12:12:55.197Z,17.95
2022-12-14T12:18:03.810Z,20.40
2022-12-14T12:23:19.324Z,18.40
2022-12-14T12:28:29.889Z,22.63
2022-12-14T12:33:42.182Z,20.92
2022-12-14T12:39:16.842Z,18.10
2022-12-14T12:44:24.626Z,21.08
2022-12-14T12:49:26.795Z,25.48
2022-12-14T12:54:41.801Z,19.52
2022-12-14T12:59:50.123Z,19.30
2022-12-14T13:04:53.305Z,19.90
2022-12-14T13:10:13.894Z,19.40
2022-12-14T13:15:34.623Z,17.93
2022-12-14T13:20:36.768Z,15.43
2022-12-14T13:26:03.519Z,14.48
2022-12-14T13:31:20.843Z,14.73
2022-12-14T13:36:42.023Z,13.52
2022-12-14T13:42:01.237Z,19.92
2022-12-14T13:47:06.037Z,15.27
2022-12-14T13:52:31.220Z,13.85
2022-12-14T13:57:33.340Z,16.48
2022-12-14T14:02:39.708Z,14.68
2022-12-14T14:07:55.805Z,17.25
2022-12-14T14:12:59.327Z,15.55
2022-12-14T14:18:13.421Z,17.05
2022-12-14T14:23:15.761Z,19.90
2022-12-14T14:28:22.969Z,16.80
2022-12-14T14:33:47.847Z,20.10
2022-12-14T14:38:51.556Z,20.25
2022-12-14T14:43:58.847Z,16.38
2022-12-14T14:49:01.126Z,20.10
2022-12-14T14:59:58.442Z,17.95
2022-12-14T15:05:24.707Z,16.98
2022-12-14T15:10:38.383Z,17.65
2022-12-14T15:15:44.891Z,19.08
2022-12-14T15:21:08.142Z,21.33
2022-12-14T15:26:17.387Z,21.50
2022-12-14T15:31:30.157Z,21.98
2022-12-14T15:36:35.661Z,28.52
2022-12-14T15:41:37.699Z,28.23
2022-12-14T15:46:40.261Z,22.48
2022-12-14T15:51:43.969Z,26.42
2022-12-14T15:56:48.814Z,27.85
2022-12-14T16:02:20.612Z,29.90
2022-12-14T16:07:39.647Z,29.23
2022-12-14T16:12:45.880Z,25.58
2022-12-14T16:17:52.793Z,23.02
2022-12-14T16:23:19.759Z,24.25
2022-12-14T16:28:36.926Z,29.67
2022-12-14T16:33:41.407Z,27.15
2022-12-14T16:39:01.629Z,31.65
2022-12-14T16:44:07.386Z,32.05
2022-12-14T16:49:32.443Z,66.65
2022-12-14T16:54:34.953Z,66.07
2022-12-14T16:59:41.154Z,48.80
2022-12-14T17:04:43.230Z,36.78
2022-12-14T17:09:45.569Z,33.88
2022-12-14T17:14:50.163Z,33.72
2022-12-14T17:19:52.622Z,32.30
2022-12-14T17:24:55.092Z,39.33
2022-12-14T17:29:57.551Z,36.53
2022-12-14T17:35:00.676Z,41.88
2022-12-14T17:40:04.076Z,33.00
2022-12-14T17:45:07.489Z,34.25
2022-12-14T17:50:13.628Z,33.38
2022-12-14T17:55:18.606Z,33.78
2022-12-14T18:00:45.532Z,35.08
2022-12-14T18:05:49.431Z,32.25
2022-12-14T18:10:55.291Z,27.92
2022-12-14T18:15:57.512Z,38.05
2022-12-14T18:21:01.772Z,41.78
2022-12-14T18:26:05.245Z,37.40
2022-12-14T18:31:32.273Z,35.45
2022-12-14T18:36:34.627Z,41.20
2022-12-14T18:41:36.727Z,43.65
2022-12-14T18:46:39.518Z,34.17
2022-12-14T18:51:44.283Z,76.95
2022-12-14T18:56:46.476Z,59.13
2022-12-14T19:01:52.353Z,42.05
2022-12-14T19:06:54.722Z,64.72
2022-12-14T19:11:57.011Z,38.22
2022-12-14T19:16:59.158Z,43.10
2022-12-14T19:22:01.605Z,36.53
2022-12-14T19:27:04.284Z,32.38
2022-12-14T19:32:06.609Z,39.25
2022-12-14T19:37:08.858Z,42.05
2022-12-14T19:42:10.994Z,47.72
2022-12-14T19:47:13.908Z,42.85
2022-12-14T19:52:16.050Z,42.40
2022-12-14T19:57:18.049Z,41.30
2022-12-14T20:02:20.439Z,46.60
2022-12-14T20:07:22.765Z,42.05
2022-12-14T20:12:24.901Z,43.50
2022-12-14T20:17:27.084Z,50.13
2022-12-14T20:22:29.206Z,50.85
2022-12-14T20:27:34.818Z,57.47
2022-12-14T20:32:41.167Z,49.88
2022-12-14T20:37:43.216Z,45.92
2022-12-14T20:42:45.290Z,32.72
2022-12-14T20:47:47.359Z,32.53
2022-12-14T20:52:49.676Z,32.28
2022-12-14T20:57:51.734Z,36.67
2022-12-14T21:02:53.915Z,33.90
2022-12-14T21:07:56.063Z,31.67
2022-12-14T21:13:00.752Z,40.35
2022-12-14T21:18:06.339Z,44.72
2022-12-14T21:23:08.441Z,76.75
2022-12-14T21:28:10.500Z,36.20
2022-12-14T21:33:12.485Z,35.13
2022-12-14T21:38:14.493Z,38.22
2022-12-14T21:43:16.621Z,32.28
2022-12-14T21:48:18.676Z,36.05
2022-12-14T21:53:20.971Z,37.33
2022-12-14T21:58:24.623Z,52.25
2022-12-14T22:03:26.686Z,40.17
2022-12-14T22:08:30.409Z,42.30
2022-12-14T22:13:33.126Z,45.78
2022-12-14T22:18:35.414Z,40.33
2022-12-14T22:23:43.159Z,44.05
2022-12-14T22:28:50.017Z,36.17
2022-12-14T22:33:54.953Z,40.10
2022-12-14T22:38:58.782Z,38.40
2022-12-14T22:44:02.153Z,35.47
2022-12-14T22:49:04.521Z,33.03
2022-12-14T22:54:06.894Z,34.05
2022-12-14T22:59:25.210Z,32.03
2022-12-14T23:04:27.359Z,33.05
2022-12-14T23:09:47.850Z,32.78
2022-12-14T23:20:29.256Z,34.22
2022-12-14T23:25:52.527Z,32.33
2022-12-14T23:31:15.033Z,30.65
2022-12-14T23:36:35.848Z,31.42
2022-12-14T23:41:56.638Z,30.35
2022-12-14T23:47:17.306Z,29.55
2022-12-14T23:52:37.787Z,31.08
2022-12-14T23:57:58.219Z,37.10
